Terminal Aerodrome Forecast
Issued by NWS Melbourne, FL

Home | Current Version | Previous Version | Text Only | Print | Product List | Glossary On
Versions: 1 2 3 4 5 6 7 8 9 10 11 12 13 14 15 16 17 18 19
000
FTUS42 KMLB 021520 AAB
TAFVRB
TAF AMD
KVRB 021520Z 0215/0312 04006KT P6SM SCT012
      TEMPO 0215/0216 BKN015
     FM021600 05009KT P6SM SCT025
     FM030000 06005KT P6SM FEW025 BKN250
     FM030600 05004KT 5SM BR BKN006=

USA.gov is the U.S. government's official web portal to all federal, state and local government web resources and services.